Time;durP1;ratioP1;P1;durP2;ratioP2;P2;SDS_P1;SDS_P2;PMS_P1;PMS_P2;Temp;Humidity;BMP_temperature;BMP_pressure;BME280_temperature;BME280_humidity;BME280_pressure;Samples;Min_cycle;Max_cycle;Signal;HPM_P1;HPM_P2
2022/08/10 00:00:38;;;;;;;4.05;3.38;;;18.40;99.90;;;;;;5152466;27;20036;-67
2022/08/10 00:03:06;;;;;;;6.43;3.15;;;18.30;99.90;;;;;;5118913;28;20039;-67
2022/08/10 00:05:32;;;;;;;5.28;3.35;;;18.40;99.90;;;;;;5118859;28;20071;-68
2022/08/10 00:07:57;;;;;;;4.00;2.95;;;18.40;99.90;;;;;;5118810;28;20400;-68
2022/08/10 00:10:24;;;;;;;7.25;3.88;;;18.40;99.90;;;;;;5118971;28;20065;-67
2022/08/10 00:12:50;;;;;;;3.97;3.20;;;18.40;99.90;;;;;;5118335;28;20040;-68
2022/08/10 00:15:18;;;;;;;4.97;3.10;;;18.40;99.90;;;;;;5100383;28;20042;-68
2022/08/10 00:17:44;;;;;;;6.38;2.78;;;18.30;99.90;;;;;;5118859;28;20035;-67
2022/08/10 00:20:11;;;;;;;5.15;2.90;;;18.30;99.90;;;;;;5118464;28;20043;-68
2022/08/10 00:22:37;;;;;;;3.03;2.72;;;18.20;99.90;;;;;;5118770;27;20039;-68
2022/08/10 00:25:03;;;;;;;4.18;2.83;;;18.10;99.90;;;;;;5117277;28;20343;-68
2022/08/10 00:27:29;;;;;;;4.38;2.70;;;18.10;99.90;;;;;;5100172;28;20436;-67
2022/08/10 00:29:55;;;;;;;4.25;2.80;;;18.10;99.90;;;;;;5117430;28;20048;-68
2022/08/10 00:32:21;;;;;;;3.85;2.72;;;18.10;99.90;;;;;;5118360;28;20059;-68
2022/08/10 00:34:47;;;;;;;3.05;2.30;;;18.10;99.90;;;;;;5117720;28;20063;-68
2022/08/10 00:37:14;;;;;;;5.40;2.70;;;18.10;99.90;;;;;;5118432;28;20467;-68
2022/08/10 00:39:40;;;;;;;4.53;2.67;;;18.10;99.90;;;;;;5117547;28;20442;-67
2022/08/10 00:42:08;;;;;;;5.15;3.05;;;18.10;99.90;;;;;;5118162;28;20032;-67
2022/08/10 00:44:42;;;;;;;5.75;3.63;;;18.10;99.90;;;;;;5117727;28;20043;-68
2022/08/10 00:47:09;;;;;;;4.78;3.47;;;18.10;99.90;;;;;;5118181;28;20067;-68
2022/08/10 00:49:34;;;;;;;4.85;3.50;;;18.30;99.90;;;;;;5116933;28;20332;-67
2022/08/10 00:52:01;;;;;;;4.95;3.10;;;18.40;99.90;;;;;;5118088;28;20040;-68
2022/08/10 00:54:27;;;;;;;4.38;3.22;;;18.40;99.90;;;;;;5117977;28;20069;-68
2022/08/10 00:56:53;;;;;;;4.75;3.63;;;18.30;99.90;;;;;;5118127;28;20081;-67
2022/08/10 00:59:19;;;;;;;8.07;5.13;;;18.30;99.90;;;;;;5117738;28;20359;-68
2022/08/10 01:01:45;;;;;;;5.78;3.72;;;18.20;99.90;;;;;;5117926;28;20484;-70
2022/08/10 01:04:10;;;;;;;5.60;4.15;;;18.30;99.90;;;;;;5116503;28;20040;-68
2022/08/10 01:07:07;;;;;;;6.47;4.68;;;18.20;99.90;;;;;;5116901;28;20161;-67
2022/08/10 01:10:04;;;;;;;7.07;4.65;;;18.20;99.90;;;;;;5117547;28;20078;-67
2022/08/10 01:12:44;;;;;;;6.80;4.47;;;18.10;99.90;;;;;;5116519;28;20447;-67
2022/08/10 01:15:19;;;;;;;8.13;4.68;;;18.10;99.90;;;;;;5118441;28;20043;-67
2022/08/10 01:17:51;;;;;;;9.43;5.22;;;18.20;99.90;;;;;;5116470;28;20371;-68
2022/08/10 01:21:06;;;;;;;7.43;5.05;;;18.20;99.90;;;;;;5117471;28;20082;-72
2022/08/10 01:23:38;;;;;;;7.97;5.03;;;18.20;99.90;;;;;;5074894;28;20441;-67
2022/08/10 01:26:21;;;;;;;5.32;4.75;;;18.10;99.90;;;;;;5041395;28;20045;-67
2022/08/10 01:29:11;;;;;;;7.22;4.68;;;18.10;99.90;;;;;;5101336;28;20079;-67
2022/08/10 01:31:42;;;;;;;6.88;5.30;;;18.10;99.90;;;;;;5117961;28;20031;-68
2022/08/10 01:34:12;;;;;;;8.13;5.22;;;18.00;99.90;;;;;;5117506;28;20085;-68
2022/08/10 01:36:46;;;;;;;6.65;5.10;;;18.00;99.90;;;;;;5117462;28;20039;-68
2022/08/10 01:39:21;;;;;;;7.55;5.78;;;18.00;99.90;;;;;;5117008;28;20075;-67
2022/08/10 01:41:53;;;;;;;8.57;5.97;;;18.00;99.90;;;;;;5116223;28;20489;-68
2022/08/10 01:44:44;;;;;;;7.20;5.80;;;18.00;99.90;;;;;;5116895;28;20085;-68
2022/08/10 01:50:05;;;;;;;8.35;5.97;;;18.10;99.90;;;;;;5116889;28;20058;-68
2022/08/10 01:52:33;;;;;;;9.57;5.85;;;18.00;99.90;;;;;;5117009;28;20039;-67
2022/08/10 01:54:59;;;;;;;8.98;6.75;;;18.00;99.90;;;;;;5116112;28;20050;-67
2022/08/10 01:57:29;;;;;;;8.88;6.60;;;18.00;99.90;;;;;;5116926;28;20039;-67
2022/08/10 01:59:56;;;;;;;11.18;6.97;;;18.00;99.90;;;;;;5116913;28;20333;-67
2022/08/10 02:02:24;;;;;;;11.50;6.95;;;18.00;99.90;;;;;;5116770;28;20122;-68
2022/08/10 02:04:51;;;;;;;10.38;7.30;;;18.00;99.90;;;;;;5117039;28;20073;-68
2022/08/10 02:07:20;;;;;;;12.48;7.20;;;18.10;99.90;;;;;;5115807;28;20047;-67
2022/08/10 02:09:51;;;;;;;10.40;7.03;;;18.10;99.90;;;;;;5115805;28;20170;-67
2022/08/10 02:12:27;;;;;;;11.98;7.47;;;18.10;99.90;;;;;;5117099;28;20044;-67
2022/08/10 02:14:57;;;;;;;10.27;7.18;;;18.10;99.90;;;;;;5116466;28;20071;-67
2022/08/10 02:17:27;;;;;;;9.52;6.78;;;18.10;99.90;;;;;;5117092;28;20043;-68
2022/08/10 02:19:55;;;;;;;8.45;6.53;;;18.10;99.90;;;;;;5116629;28;20080;-67
2022/08/10 02:22:22;;;;;;;11.48;6.82;;;18.20;99.90;;;;;;5116972;28;20422;-68
2022/08/10 02:24:50;;;;;;;9.32;6.45;;;18.20;99.90;;;;;;5115609;28;20073;-67
2022/08/10 02:27:20;;;;;;;10.27;6.50;;;18.20;99.90;;;;;;5115675;28;20056;-67
2022/08/10 02:29:47;;;;;;;8.90;6.68;;;18.10;99.90;;;;;;5116847;28;20051;-68
2022/08/10 02:32:14;;;;;;;11.23;6.45;;;18.20;99.90;;;;;;5116770;28;20031;-67
2022/08/10 02:34:40;;;;;;;9.93;5.72;;;18.20;99.90;;;;;;5116784;28;20078;-67
2022/08/10 02:37:08;;;;;;;9.70;6.40;;;18.20;99.90;;;;;;5098597;28;20104;-67
2022/08/10 02:39:35;;;;;;;8.00;6.32;;;18.20;99.90;;;;;;5116489;28;20093;-67
2022/08/10 02:42:21;;;;;;;8.30;6.28;;;18.20;99.90;;;;;;5116535;28;20040;-67
2022/08/10 02:44:55;;;;;;;8.85;6.30;;;18.30;99.90;;;;;;5116066;28;20052;-67
2022/08/10 02:48:02;;;;;;;8.23;6.60;;;18.20;99.90;;;;;;5115440;28;20050;-67
2022/08/10 02:50:30;;;;;;;8.30;6.20;;;18.20;99.90;;;;;;5057130;28;20045;-68
2022/08/10 02:53:10;;;;;;;8.18;6.10;;;18.20;99.90;;;;;;5109221;28;20340;-67
2022/08/10 02:55:49;;;;;;;10.18;6.75;;;18.20;99.90;;;;;;5116750;28;20032;-67
2022/08/10 02:58:42;;;;;;;8.40;6.10;;;18.20;99.90;;;;;;5117999;28;20043;-67
2022/08/10 03:01:13;;;;;;;11.05;6.32;;;18.20;99.90;;;;;;5112606;28;20056;-68
2022/08/10 03:03:48;;;;;;;9.52;6.13;;;18.10;99.90;;;;;;5119459;28;20293;-67
2022/08/10 03:06:19;;;;;;;9.68;6.25;;;18.20;99.90;;;;;;5152664;27;20046;-67
2022/08/10 03:08:46;;;;;;;9.30;7.03;;;18.10;99.90;;;;;;5119953;28;20044;-67
2022/08/10 03:11:19;;;;;;;10.07;6.28;;;18.20;99.90;;;;;;5153448;27;20148;-68
2022/08/10 03:13:46;;;;;;;9.88;6.93;;;18.20;99.90;;;;;;5119870;28;20118;-67
2022/08/10 03:16:13;;;;;;;9.45;5.80;;;18.20;99.90;;;;;;5119936;28;20419;-67
2022/08/10 03:18:39;;;;;;;8.20;6.07;;;18.20;99.90;;;;;;5119931;28;20051;-68
2022/08/10 03:21:06;;;;;;;8.98;6.72;;;18.10;99.90;;;;;;5119249;28;20050;-68
2022/08/10 03:23:33;;;;;;;10.02;6.72;;;18.10;99.90;;;;;;5119875;27;20036;-67
2022/08/10 03:25:59;;;;;;;9.98;6.57;;;18.10;99.90;;;;;;5119893;28;20058;-68
2022/08/10 03:28:28;;;;;;;9.43;6.50;;;18.00;99.90;;;;;;5101415;28;20332;-67
2022/08/10 03:30:54;;;;;;;8.15;6.45;;;18.00;99.90;;;;;;5135592;27;20114;-67
2022/08/10 03:33:22;;;;;;;10.35;7.30;;;18.00;99.90;;;;;;5119526;28;20032;-67
2022/08/10 03:35:48;;;;;;;8.60;6.65;;;18.00;99.90;;;;;;5119463;28;20040;-68
2022/08/10 03:38:14;;;;;;;10.10;7.05;;;18.00;99.90;;;;;;5119572;28;20161;-67
2022/08/10 03:40:41;;;;;;;9.65;6.95;;;18.00;99.90;;;;;;5119422;28;20118;-68
2022/08/10 03:43:10;;;;;;;10.63;7.15;;;18.00;99.90;;;;;;5135580;27;20444;-67
2022/08/10 03:45:37;;;;;;;11.27;7.35;;;18.00;99.90;;;;;;5118147;28;20436;-67
2022/08/10 03:48:05;;;;;;;9.98;7.10;;;18.00;99.90;;;;;;5118085;28;20044;-67
2022/08/10 03:50:31;;;;;;;9.43;6.95;;;18.00;99.90;;;;;;5119502;28;20081;-67
2022/08/10 03:52:57;;;;;;;9.50;6.68;;;18.00;99.90;;;;;;5119129;28;20035;-68
2022/08/10 03:55:24;;;;;;;10.15;6.93;;;17.90;99.90;;;;;;5119167;28;20044;-67
2022/08/10 03:57:49;;;;;;;9.20;7.28;;;17.90;99.90;;;;;;5119682;28;20309;-68
2022/08/10 04:00:17;;;;;;;11.07;7.38;;;18.00;99.90;;;;;;5117941;28;20046;-67
2022/08/10 04:02:45;;;;;;;12.98;7.80;;;17.90;99.90;;;;;;5119079;28;20051;-67
2022/08/10 04:05:16;;;;;;;10.60;7.88;;;17.90;99.90;;;;;;5119061;28;20032;-68
2022/08/10 04:07:43;;;;;;;12.18;7.53;;;17.80;99.90;;;;;;5118662;28;20080;-67
2022/08/10 04:10:09;;;;;;;15.88;8.60;;;17.80;99.90;;;;;;5118385;28;20044;-67
2022/08/10 04:12:35;;;;;;;10.95;7.47;;;17.90;99.90;;;;;;5118811;27;20052;-68
2022/08/10 04:15:01;;;;;;;13.05;8.07;;;17.90;99.90;;;;;;5118561;28;20035;-69
2022/08/10 04:17:26;;;;;;;12.63;8.40;;;17.90;99.90;;;;;;5117580;28;20047;-68
2022/08/10 04:19:55;;;;;;;9.95;7.13;;;18.00;99.90;;;;;;5117773;28;20073;-68
2022/08/10 04:22:24;;;;;;;11.75;7.90;;;18.00;99.90;;;;;;5118417;28;20115;-67
2022/08/10 04:24:55;;;;;;;10.93;7.82;;;18.00;99.90;;;;;;5118303;28;20420;-68
2022/08/10 04:27:21;;;;;;;10.10;8.02;;;18.00;99.90;;;;;;5118516;28;20043;-67
2022/08/10 04:29:50;;;;;;;12.27;8.80;;;18.10;99.90;;;;;;5117312;28;20058;-67
2022/08/10 04:32:19;;;;;;;17.08;9.55;;;18.10;99.90;;;;;;5118704;27;20035;-67
2022/08/10 04:34:46;;;;;;;14.57;8.98;;;18.20;99.90;;;;;;5117391;28;20040;-68
2022/08/10 04:37:13;;;;;;;16.30;10.23;;;18.20;99.90;;;;;;5118731;28;20114;-67
2022/08/10 04:39:39;;;;;;;14.10;9.65;;;18.30;99.90;;;;;;5118799;28;20043;-68
2022/08/10 04:42:06;;;;;;;18.35;10.02;;;18.30;99.90;;;;;;5118173;28;20039;-67
2022/08/10 04:44:33;;;;;;;14.45;9.10;;;18.30;99.90;;;;;;5118116;28;20039;-67
2022/08/10 04:46:58;;;;;;;13.30;9.50;;;18.30;99.90;;;;;;5100056;28;20058;-67
2022/08/10 04:49:25;;;;;;;15.63;10.27;;;18.30;99.90;;;;;;5117945;28;20035;-67
2022/08/10 04:51:50;;;;;;;14.73;8.73;;;18.30;99.90;;;;;;5118181;28;20042;-67
2022/08/10 04:54:16;;;;;;;13.80;9.07;;;18.30;99.90;;;;;;5118107;28;20356;-68
2022/08/10 04:56:42;;;;;;;18.90;11.07;;;18.40;99.90;;;;;;5117484;28;20471;-68
2022/08/10 04:59:09;;;;;;;16.10;10.18;;;18.50;99.90;;;;;;5117868;28;20050;-67
2022/08/10 05:01:37;;;;;;;16.77;9.75;;;18.50;99.90;;;;;;5116792;28;20317;-67
2022/08/10 05:04:03;;;;;;;13.82;9.32;;;18.50;99.90;;;;;;5117549;28;20043;-68
2022/08/10 05:06:28;;;;;;;15.77;9.63;;;18.50;99.90;;;;;;5151174;27;20036;-67
2022/08/10 05:08:54;;;;;;;13.10;8.68;;;18.60;99.90;;;;;;5116906;28;20093;-68
2022/08/10 05:11:20;;;;;;;13.40;9.27;;;18.60;99.90;;;;;;5116747;28;20417;-68
2022/08/10 05:13:45;;;;;;;14.60;9.73;;;18.60;99.90;;;;;;5117374;28;20036;-67
2022/08/10 05:16:11;;;;;;;14.68;8.90;;;18.70;99.90;;;;;;5116648;28;20118;-68
2022/08/10 05:18:37;;;;;;;16.02;10.68;;;18.70;99.90;;;;;;5116589;28;20047;-67
2022/08/10 05:21:03;;;;;;;14.63;9.32;;;18.70;99.90;;;;;;5116860;28;20043;-67
2022/08/10 05:23:28;;;;;;;13.45;8.30;;;18.80;99.90;;;;;;5117407;28;20115;-67
2022/08/10 05:25:54;;;;;;;13.27;8.80;;;18.90;99.90;;;;;;5117597;28;20116;-67
2022/08/10 05:28:20;;;;;;;13.70;8.55;;;19.00;99.90;;;;;;5116056;28;20132;-67
2022/08/10 05:30:45;;;;;;;16.83;9.55;;;19.00;99.90;;;;;;5117252;28;20047;-67
2022/08/10 05:33:11;;;;;;;17.02;10.43;;;19.20;99.90;;;;;;5117484;28;20085;-68
2022/08/10 05:35:37;;;;;;;13.65;9.00;;;19.20;99.90;;;;;;5150553;27;20062;-68
2022/08/10 05:38:04;;;;;;;17.65;9.20;;;19.20;99.90;;;;;;5117056;28;20118;-68
2022/08/10 05:40:30;;;;;;;16.60;9.55;;;19.30;99.90;;;;;;5117259;28;20086;-68
2022/08/10 05:42:56;;;;;;;16.50;8.40;;;19.40;99.90;;;;;;5116976;28;20079;-68
2022/08/10 05:45:26;;;;;;;16.70;9.13;;;19.50;99.90;;;;;;5116763;28;20093;-67
2022/08/10 05:47:53;;;;;;;19.00;9.35;;;19.60;99.90;;;;;;5116852;28;20169;-68
2022/08/10 05:50:24;;;;;;;17.05;9.75;;;19.70;99.90;;;;;;5116341;28;20039;-67
2022/08/10 05:52:49;;;;;;;18.60;11.23;;;19.90;99.90;;;;;;5117084;28;20329;-68
2022/08/10 05:55:15;;;;;;;18.52;9.20;;;20.00;99.90;;;;;;5117432;28;20039;-67
2022/08/10 05:57:42;;;;;;;14.30;9.60;;;20.20;99.90;;;;;;5116133;28;20479;-68
2022/08/10 06:00:11;;;;;;;15.40;9.13;;;20.10;99.90;;;;;;5117002;28;20036;-68
2022/08/10 06:02:42;;;;;;;17.00;9.48;;;20.00;99.90;;;;;;5116087;28;20044;-68
2022/08/10 06:05:09;;;;;;;13.32;8.68;;;20.20;99.90;;;;;;5098746;28;20043;-68
2022/08/10 06:07:39;;;;;;;14.52;8.60;;;20.30;99.90;;;;;;5116714;28;20032;-67
2022/08/10 06:10:08;;;;;;;16.85;8.30;;;20.50;99.90;;;;;;5116997;28;20065;-67
2022/08/10 06:12:34;;;;;;;10.60;7.40;;;20.50;99.90;;;;;;5116993;28;20035;-68
2022/08/10 06:15:02;;;;;;;13.25;7.40;;;20.40;99.90;;;;;;5116513;28;20035;-68
2022/08/10 06:17:29;;;;;;;12.15;7.25;;;20.40;99.90;;;;;;5116743;28;20301;-68
2022/08/10 06:19:56;;;;;;;12.93;7.13;;;20.50;99.90;;;;;;5115883;28;20086;-71
2022/08/10 06:22:24;;;;;;;12.23;6.95;;;20.60;99.90;;;;;;5115740;28;20043;-68
2022/08/10 06:24:51;;;;;;;16.00;8.02;;;20.70;99.90;;;;;;5116963;28;20063;-68
2022/08/10 06:27:17;;;;;;;13.35;6.72;;;20.70;99.90;;;;;;5149609;27;20074;-69
2022/08/10 06:29:45;;;;;;;14.40;7.15;;;20.90;99.90;;;;;;5132664;28;20344;-68
2022/08/10 06:32:12;;;;;;;12.60;6.80;;;21.00;99.90;;;;;;5132739;28;20496;-68
2022/08/10 06:34:43;;;;;;;8.90;6.40;;;21.00;99.90;;;;;;5136491;27;20040;-68
2022/08/10 06:37:11;;;;;;;6.88;5.15;;;21.10;99.90;;;;;;5120738;28;20047;-68
2022/08/10 06:39:37;;;;;;;10.48;6.30;;;21.20;99.90;;;;;;5120562;28;20347;-68
2022/08/10 06:42:29;;;;;;;9.82;6.35;;;21.20;99.90;;;;;;5120697;28;20110;-67
2022/08/10 06:44:59;;;;;;;9.55;5.60;;;21.20;99.90;;;;;;5114354;27;20087;-68
2022/08/10 06:47:31;;;;;;;9.07;4.90;;;21.10;99.90;;;;;;5120442;28;20119;-66
2022/08/10 06:50:02;;;;;;;8.70;4.40;;;21.00;99.90;;;;;;5120401;28;20054;-65
2022/08/10 06:52:31;;;;;;;10.75;5.40;;;20.90;99.90;;;;;;5119199;28;20062;-66
2022/08/10 06:54:59;;;;;;;7.97;3.95;;;21.10;99.90;;;;;;5120351;28;20443;-66
2022/08/10 06:57:27;;;;;;;6.82;4.15;;;21.10;99.90;;;;;;5120287;28;20328;-66
2022/08/10 06:59:55;;;;;;;6.47;4.40;;;21.00;99.90;;;;;;5120391;28;20366;-66
2022/08/10 07:02:26;;;;;;;7.50;4.20;;;21.00;99.90;;;;;;5119136;28;20046;-66
2022/08/10 07:04:59;;;;;;;5.68;3.85;;;21.30;99.90;;;;;;5120096;28;20048;-66
2022/08/10 07:07:35;;;;;;;7.78;3.88;;;21.40;99.90;;;;;;5119099;28;20054;-66
2022/08/10 07:10:01;;;;;;;5.28;3.70;;;21.60;99.90;;;;;;5120129;28;20040;-66
2022/08/10 07:12:29;;;;;;;6.38;4.05;;;21.80;99.90;;;;;;5120590;28;20043;-66
2022/08/10 07:14:57;;;;;;;7.65;4.30;;;21.90;99.90;;;;;;5152349;27;20110;-66
2022/08/10 07:17:24;;;;;;;6.75;3.53;;;21.90;99.90;;;;;;5119936;28;20418;-66
2022/08/10 07:19:58;;;;;;;9.43;3.50;;;21.90;99.90;;;;;;5119780;28;20036;-66
2022/08/10 07:22:28;;;;;;;7.97;3.42;;;21.90;99.90;;;;;;5119866;28;20054;-65
2022/08/10 07:24:55;;;;;;;7.47;3.90;;;22.00;99.90;;;;;;5119837;28;20501;-66
2022/08/10 07:27:23;;;;;;;6.07;3.05;;;22.00;99.90;;;;;;5119529;28;20089;-66
2022/08/10 07:29:50;;;;;;;4.35;2.63;;;22.10;99.90;;;;;;5118670;28;20051;-66
2022/08/10 07:32:18;;;;;;;5.72;2.80;;;22.30;99.90;;;;;;5101592;28;20031;-65
2022/08/10 07:34:47;;;;;;;5.75;2.70;;;22.50;99.90;;;;;;5119783;28;20044;-65
2022/08/10 07:37:14;;;;;;;7.57;2.80;;;22.40;99.90;;;;;;5119487;28;20036;-66
2022/08/10 07:39:44;;;;;;;8.30;2.85;;;22.40;99.90;;;;;;5118538;28;20047;-66
2022/08/10 07:42:12;;;;;;;5.13;3.00;;;22.40;99.90;;;;;;5119407;28;20119;-66
2022/08/10 07:44:41;;;;;;;4.93;3.08;;;22.30;99.90;;;;;;5117601;28;20463;-66
2022/08/10 07:47:10;;;;;;;4.13;2.97;;;22.20;99.90;;;;;;5119530;28;20043;-66
2022/08/10 07:49:39;;;;;;;6.20;2.92;;;22.40;99.90;;;;;;5119062;28;20495;-66
2022/08/10 07:52:07;;;;;;;5.97;3.40;;;22.50;99.90;;;;;;5119372;28;20452;-66
2022/08/10 07:54:41;;;;;;;6.85;2.85;;;22.60;99.90;;;;;;5119067;28;20425;-65
2022/08/10 07:57:17;;;;;;;5.93;2.80;;;22.70;99.90;;;;;;5117994;28;20086;-66
2022/08/10 07:59:46;;;;;;;4.63;2.22;;;22.70;99.90;;;;;;5152818;27;20075;-67
2022/08/10 08:02:22;;;;;;;4.97;2.13;;;22.90;99.90;;;;;;5119098;28;20123;-67
2022/08/10 08:04:48;;;;;;;5.40;2.63;;;23.00;99.90;;;;;;5119155;28;20141;-66
2022/08/10 08:07:15;;;;;;;5.53;2.40;;;23.10;99.90;;;;;;5118879;28;20047;-68
2022/08/10 08:09:42;;;;;;;4.40;2.70;;;23.20;99.90;;;;;;5118989;28;20036;-69
2022/08/10 08:12:10;;;;;;;4.65;2.67;;;23.20;99.90;;;;;;5119036;28;20032;-67
2022/08/10 08:14:38;;;;;;;5.85;3.20;;;23.30;99.90;;;;;;5118350;28;20039;-67
2022/08/10 08:17:06;;;;;;;7.88;3.08;;;23.40;99.90;;;;;;5118762;28;20042;-66
2022/08/10 08:19:32;;;;;;;4.57;2.35;;;23.50;99.90;;;;;;5118726;28;20075;-68
2022/08/10 08:21:59;;;;;;;5.38;2.40;;;23.50;99.90;;;;;;5118747;28;20036;-67
2022/08/10 08:24:26;;;;;;;3.85;2.50;;;23.40;99.90;;;;;;5118511;28;20447;-67
2022/08/10 08:26:54;;;;;;;4.57;2.67;;;23.10;99.90;;;;;;5115945;27;20437;-69
2022/08/10 08:29:21;;;;;;;3.60;2.20;;;23.20;99.90;;;;;;5116743;28;20044;-66
2022/08/10 08:31:48;;;;;;;6.10;2.10;;;23.20;99.90;;;;;;5117730;28;20436;-67
2022/08/10 08:34:18;;;;;;;5.25;2.58;;;23.30;99.90;;;;;;5117343;28;20447;-67
2022/08/10 08:36:46;;;;;;;5.90;2.42;;;23.60;99.90;;;;;;5118082;28;20442;-67
2022/08/10 08:39:11;;;;;;;5.50;2.00;;;23.80;99.90;;;;;;5118521;28;20054;-66
2022/08/10 08:41:40;;;;;;;5.60;2.15;;;23.90;99.90;;;;;;5117336;28;20436;-66
2022/08/10 08:44:30;;;;;;;5.65;2.15;;;24.00;99.90;;;;;;5151353;27;20070;-66
2022/08/10 08:47:33;;;;;;;4.35;2.28;;;24.00;99.90;;;;;;5117972;28;20050;-66
2022/08/10 08:50:20;;;;;;;7.45;2.25;;;23.90;99.90;;;;;;5117992;28;20036;-67
2022/08/10 08:53:15;;;;;;;6.95;2.03;;;24.30;99.90;;;;;;5118080;28;20071;-67
2022/08/10 08:55:56;;;;;;;5.05;1.83;;;24.40;99.90;;;;;;5117844;28;20039;-67
2022/08/10 08:58:27;;;;;;;7.88;2.13;;;24.60;99.90;;;;;;5117976;28;20040;-67
2022/08/10 09:01:19;;;;;;;3.20;1.67;;;24.60;99.90;;;;;;5117997;28;20077;-67
2022/08/10 09:04:00;;;;;;;6.15;1.90;;;24.50;99.90;;;;;;5151234;27;20064;-67
2022/08/10 09:06:34;;;;;;;5.80;1.80;;;24.60;99.90;;;;;;5117721;28;20036;-68
2022/08/10 09:09:23;;;;;;;5.97;1.80;;;24.80;99.90;;;;;;5117830;28;20039;-67
2022/08/10 09:12:35;;;;;;;5.32;1.90;;;25.10;99.90;;;;;;5078513;28;20039;-67
2022/08/10 09:15:26;;;;;;;2.95;1.98;;;25.10;99.90;;;;;;5117192;28;20031;-67
2022/08/10 09:18:04;;;;;;;3.83;1.80;;;24.90;99.80;;;;;;5117507;28;20117;-67
2022/08/10 09:20:41;;;;;;;4.03;1.98;;;25.00;99.90;;;;;;5150732;27;20041;-67
2022/08/10 09:23:41;;;;;;;4.78;1.80;;;25.10;99.90;;;;;;5117442;28;20432;-67
2022/08/10 09:26:39;;;;;;;4.78;1.80;;;25.40;99.90;;;;;;5117347;28;20035;-67
2022/08/10 09:29:06;;;;;;;5.05;1.60;;;25.70;99.90;;;;;;5145056;27;20052;-67
2022/08/10 09:31:44;;;;;;;5.80;1.60;;;25.80;99.90;;;;;;5117264;28;20036;-67
2022/08/10 09:34:37;;;;;;;5.95;2.17;;;25.90;99.90;;;;;;5117141;28;20438;-67
2022/08/10 09:37:15;;;;;;;4.25;1.83;;;25.90;99.50;;;;;;5108861;28;20429;-68
2022/08/10 09:39:56;;;;;;;3.85;1.52;;;26.10;99.70;;;;;;5116622;28;20093;-67
2022/08/10 09:42:30;;;;;;;4.78;1.80;;;26.10;99.60;;;;;;5116306;28;20367;-67
2022/08/10 09:45:15;;;;;;;3.90;1.50;;;26.20;99.50;;;;;;5116722;28;20425;-67
2022/08/10 09:48:19;;;;;;;3.40;1.73;;;26.30;99.50;;;;;;5116195;28;20363;-67
2022/08/10 09:51:00;;;;;;;5.57;1.73;;;26.10;99.70;;;;;;5117130;28;20031;-67
2022/08/10 09:53:59;;;;;;;2.97;1.60;;;26.50;99.70;;;;;;5117027;28;20071;-67
2022/08/10 09:56:31;;;;;;;3.97;1.33;;;26.70;99.10;;;;;;5116962;28;20054;-67
2022/08/10 09:59:21;;;;;;;8.68;2.05;;;26.70;99.50;;;;;;5117136;28;20043;-67
2022/08/10 10:01:57;;;;;;;5.22;1.67;;;26.80;99.10;;;;;;5117145;28;20108;-67
2022/08/10 10:04:38;;;;;;;4.70;1.55;;;27.10;99.00;;;;;;5117081;28;20114;-67
2022/08/10 10:07:06;;;;;;;6.82;1.92;;;27.40;99.30;;;;;;5115895;28;20048;-67
2022/08/10 10:09:44;;;;;;;5.65;1.40;;;27.40;99.40;;;;;;5119598;28;20043;-67
2022/08/10 10:12:41;;;;;;;6.85;1.40;;;27.40;99.30;;;;;;5121213;28;20031;-67
2022/08/10 10:15:28;;;;;;;4.00;2.13;;;27.40;99.40;;;;;;5154398;27;20048;-67
2022/08/10 10:18:26;;;;;;;5.10;2.25;;;27.50;99.00;;;;;;5121081;28;20046;-67
2022/08/10 10:21:04;;;;;;;4.25;2.20;;;27.40;98.80;;;;;;5086450;27;20039;-69
2022/08/10 10:23:44;;;;;;;3.50;1.55;;;27.60;98.80;;;;;;5120984;28;20032;-67
2022/08/10 10:26:40;;;;;;;5.93;2.17;;;27.50;99.00;;;;;;5121059;28;20045;-67
2022/08/10 10:29:43;;;;;;;7.63;2.40;;;27.80;98.80;;;;;;5120770;28;20122;-67
2022/08/10 10:32:17;;;;;;;5.43;2.03;;;28.20;99.00;;;;;;5121006;28;20040;-67
2022/08/10 10:34:59;;;;;;;6.50;1.95;;;28.30;98.70;;;;;;5121126;28;20040;-67
2022/08/10 10:37:26;;;;;;;8.93;1.80;;;28.40;98.60;;;;;;5137305;27;20308;-67
2022/08/10 10:39:54;;;;;;;5.43;2.00;;;28.50;98.20;;;;;;5120402;28;20134;-67
2022/08/10 10:42:42;;;;;;;5.32;2.00;;;28.60;98.10;;;;;;5120721;28;20044;-67
2022/08/10 10:45:18;;;;;;;6.97;2.08;;;28.50;98.20;;;;;;5120379;28;20073;-67
2022/08/10 10:48:01;;;;;;;3.03;1.42;;;28.60;98.20;;;;;;5120465;28;20044;-67
2022/08/10 10:50:48;;;;;;;5.35;2.17;;;28.70;98.50;;;;;;5119324;28;20293;-67
2022/08/10 10:53:17;;;;;;;6.95;2.10;;;28.90;98.50;;;;;;5120342;27;20036;-67
2022/08/10 10:56:09;;;;;;;5.10;2.00;;;29.10;98.00;;;;;;5102172;28;20036;-67
2022/08/10 10:58:42;;;;;;;8.35;2.05;;;29.00;98.00;;;;;;5091286;28;20452;-67
2022/08/10 11:01:24;;;;;;;6.40;1.77;;;29.00;98.00;;;;;;5120293;28;20048;-67
2022/08/10 11:04:21;;;;;;;2.70;1.48;;;29.10;98.30;;;;;;5120298;28;20046;-67
2022/08/10 11:07:10;;;;;;;2.72;1.48;;;29.50;97.90;;;;;;5120115;28;20057;-67
2022/08/10 11:09:42;;;;;;;2.33;1.10;;;29.70;97.70;;;;;;5153502;27;20320;-67
2022/08/10 11:12:39;;;;;;;6.15;1.80;;;29.50;97.70;;;;;;5119252;28;20443;-67
2022/08/10 11:15:38;;;;;;;4.35;1.33;;;29.70;97.70;;;;;;5119569;28;20035;-67
2022/08/10 11:18:44;;;;;;;4.35;1.75;;;30.00;97.30;;;;;;5118860;28;20117;-67
2022/08/10 11:21:39;;;;;;;4.43;1.70;;;30.00;97.10;;;;;;5131898;27;20455;-67
2022/08/10 11:24:15;;;;;;;4.80;1.40;;;29.90;97.30;;;;;;5153309;27;20032;-67
2022/08/10 11:26:52;;;;;;;2.17;1.10;;;30.10;97.50;;;;;;5135589;27;20051;-67
2022/08/10 11:29:44;;;;;;;2.83;1.70;;;30.40;97.20;;;;;;5119892;27;20123;-67
2022/08/10 11:32:17;;;;;;;2.95;1.20;;;30.30;97.00;;;;;;5119731;28;20432;-66
2022/08/10 11:35:17;;;;;;;3.53;1.10;;;30.40;97.00;;;;;;5119812;28;20042;-67
2022/08/10 11:37:57;;;;;;;4.13;1.48;;;30.60;97.20;;;;;;5119654;28;20036;-67
2022/08/10 11:40:42;;;;;;;3.40;1.05;;;30.40;97.30;;;;;;5119262;28;20042;-67
2022/08/10 11:43:22;;;;;;;3.28;1.20;;;30.70;96.80;;;;;;5119759;28;20134;-67
2022/08/10 11:45:55;;;;;;;5.72;1.13;;;30.70;96.80;;;;;;5152340;27;20489;-67
2022/08/10 11:48:35;;;;;;;5.03;1.17;;;30.80;96.60;;;;;;5118581;28;20390;-67
2022/08/10 11:51:07;;;;;;;1.35;0.90;;;30.90;96.70;;;;;;5119650;28;20324;-67
2022/08/10 11:53:48;;;;;;;1.42;1.00;;;30.80;96.80;;;;;;5119402;28;20097;-67
2022/08/10 11:56:45;;;;;;;3.08;1.30;;;31.10;97.10;;;;;;5118173;28;20455;-67
2022/08/10 12:01:57;;;;;;;2.42;1.67;;;31.50;96.80;;;;;;5118284;28;19915;-67
2022/08/10 12:04:24;;;;;;;4.32;1.40;;;31.80;96.60;;;;;;5119171;28;20039;-67
2022/08/10 12:06:52;;;;;;;2.67;1.30;;;32.00;96.40;;;;;;5118943;28;20065;-67
2022/08/10 12:09:19;;;;;;;3.80;1.20;;;31.90;96.40;;;;;;5152243;27;20036;-67
2022/08/10 12:11:47;;;;;;;3.95;1.52;;;31.80;96.40;;;;;;5118725;28;20039;-67
2022/08/10 12:14:23;;;;;;;2.15;1.13;;;31.80;96.40;;;;;;5118432;28;20032;-67
2022/08/10 12:17:08;;;;;;;2.95;1.05;;;31.80;96.30;;;;;;5119086;28;20039;-67
2022/08/10 12:19:48;;;;;;;3.42;1.50;;;32.00;96.00;;;;;;5118875;28;20118;-67
2022/08/10 12:22:20;;;;;;;2.58;1.10;;;32.20;96.20;;;;;;5118636;28;20328;-67
2022/08/10 12:24:55;;;;;;;3.60;1.30;;;32.70;96.10;;;;;;5118590;28;20444;-67
2022/08/10 12:27:37;;;;;;;2.25;1.20;;;32.80;95.90;;;;;;5118889;28;20411;-67
2022/08/10 12:30:09;;;;;;;2.45;1.30;;;32.90;96.10;;;;;;5118289;28;20122;-67
2022/08/10 12:32:58;;;;;;;3.58;1.30;;;32.70;96.00;;;;;;5118283;28;20032;-67
2022/08/10 12:35:58;;;;;;;1.65;0.90;;;32.90;96.00;;;;;;5118359;28;20432;-67
2022/08/10 12:38:35;;;;;;;4.93;1.00;;;32.70;95.90;;;;;;5118269;28;20045;-67
2022/08/10 12:41:08;;;;;;;3.45;0.88;;;32.90;95.90;;;;;;5118342;28;20081;-67
2022/08/10 12:43:42;;;;;;;1.85;1.00;;;32.90;95.80;;;;;;5118437;28;20110;-67
2022/08/10 12:46:35;;;;;;;1.58;0.88;;;32.90;95.50;;;;;;5117267;28;20051;-67
2022/08/10 12:49:19;;;;;;;1.52;0.98;;;33.10;95.70;;;;;;5118209;28;20081;-68
2022/08/10 12:51:52;;;;;;;5.10;1.20;;;33.40;95.50;;;;;;5117330;28;20328;-67
2022/08/10 12:54:20;;;;;;;4.93;1.20;;;33.50;95.40;;;;;;5118073;28;20035;-67
2022/08/10 12:57:19;;;;;;;5.15;1.10;;;33.40;95.30;;;;;;5117181;28;20298;-67
2022/08/10 12:59:49;;;;;;;5.35;1.10;;;32.90;95.50;;;;;;5117210;28;20051;-67
2022/08/10 13:02:39;;;;;;;3.45;0.80;;;33.20;95.50;;;;;;5117101;28;20039;-67
2022/08/10 13:05:09;;;;;;;1.95;0.75;;;33.10;95.40;;;;;;5118138;28;20043;-67
2022/08/10 13:07:39;;;;;;;2.65;1.10;;;32.80;95.60;;;;;;5117936;28;20035;-67
2022/08/10 13:10:12;;;;;;;3.90;1.25;;;33.10;95.50;;;;;;5117695;28;20333;-67
2022/08/10 13:12:48;;;;;;;3.25;0.90;;;33.20;95.20;;;;;;5117524;28;20328;-67
2022/08/10 13:15:29;;;;;;;;;;;33.30;95.30;;;;;;5117811;28;20032;-67
2022/08/10 13:18:00;;;;;;;4.25;1.00;;;33.00;95.40;;;;;;5151025;27;19915;-67
2022/08/10 13:20:29;;;;;;;3.90;1.10;;;33.30;95.30;;;;;;5151076;27;20043;-67